sensor_id;sensor_type;location;lat;lon;timestamp;temperature;humidity
68764;DHT22;55754;52.038;5.566;2022-10-16T00:00:45;13.90;83.20
68764;DHT22;55754;52.038;5.566;2022-10-16T00:03:11;13.90;83.30
68764;DHT22;55754;52.038;5.566;2022-10-16T00:05:41;13.90;83.30
68764;DHT22;55754;52.038;5.566;2022-10-16T00:08:08;13.90;83.30
68764;DHT22;55754;52.038;5.566;2022-10-16T00:10:34;13.90;83.20
68764;DHT22;55754;52.038;5.566;2022-10-16T00:13:00;13.80;83.40
68764;DHT22;55754;52.038;5.566;2022-10-16T00:15:25;13.90;83.40
68764;DHT22;55754;52.038;5.566;2022-10-16T00:17:51;13.90;83.50
68764;DHT22;55754;52.038;5.566;2022-10-16T00:20:16;13.80;83.60
68764;DHT22;55754;52.038;5.566;2022-10-16T00:22:42;13.90;83.60
68764;DHT22;55754;52.038;5.566;2022-10-16T00:25:08;13.90;83.70
68764;DHT22;55754;52.038;5.566;2022-10-16T00:27:34;13.90;83.70
68764;DHT22;55754;52.038;5.566;2022-10-16T00:29:59;13.90;83.90
68764;DHT22;55754;52.038;5.566;2022-10-16T00:32:25;13.90;83.90
68764;DHT22;55754;52.038;5.566;2022-10-16T00:34:50;13.90;83.90
68764;DHT22;55754;52.038;5.566;2022-10-16T00:37:16;13.90;83.90
68764;DHT22;55754;52.038;5.566;2022-10-16T00:39:42;13.90;83.90
68764;DHT22;55754;52.038;5.566;2022-10-16T00:42:14;13.90;83.90
68764;DHT22;55754;52.038;5.566;2022-10-16T00:49:51;13.80;84.00
68764;DHT22;55754;52.038;5.566;2022-10-16T00:52:17;13.90;84.10
68764;DHT22;55754;52.038;5.566;2022-10-16T00:54:44;13.90;84.10
68764;DHT22;55754;52.038;5.566;2022-10-16T00:57:11;13.90;84.20
68764;DHT22;55754;52.038;5.566;2022-10-16T00:59:39;13.90;84.20
68764;DHT22;55754;52.038;5.566;2022-10-16T01:02:07;14.00;84.30
68764;DHT22;55754;52.038;5.566;2022-10-16T01:04:52;14.00;84.30
68764;DHT22;55754;52.038;5.566;2022-10-16T01:07:28;14.00;84.10
68764;DHT22;55754;52.038;5.566;2022-10-16T01:10:07;14.00;84.20
68764;DHT22;55754;52.038;5.566;2022-10-16T01:12:54;14.00;84.30
68764;DHT22;55754;52.038;5.566;2022-10-16T01:15:52;14.00;84.20
68764;DHT22;55754;52.038;5.566;2022-10-16T01:18:59;14.00;84.30
68764;DHT22;55754;52.038;5.566;2022-10-16T01:21:38;14.00;84.60
68764;DHT22;55754;52.038;5.566;2022-10-16T01:24:33;14.00;84.50
68764;DHT22;55754;52.038;5.566;2022-10-16T01:30:04;14.00;84.60
68764;DHT22;55754;52.038;5.566;2022-10-16T01:35:05;14.00;84.60
68764;DHT22;55754;52.038;5.566;2022-10-16T01:37:38;14.00;84.80
68764;DHT22;55754;52.038;5.566;2022-10-16T01:40:09;14.00;84.90
68764;DHT22;55754;52.038;5.566;2022-10-16T01:42:48;14.00;84.90
68764;DHT22;55754;52.038;5.566;2022-10-16T01:45:17;14.00;85.10
68764;DHT22;55754;52.038;5.566;2022-10-16T01:47:44;14.00;85.30
68764;DHT22;55754;52.038;5.566;2022-10-16T01:50:11;14.00;85.30
68764;DHT22;55754;52.038;5.566;2022-10-16T01:52:42;14.00;85.30
68764;DHT22;55754;52.038;5.566;2022-10-16T01:55:10;14.00;85.30
68764;DHT22;55754;52.038;5.566;2022-10-16T01:57:41;14.00;85.40
68764;DHT22;55754;52.038;5.566;2022-10-16T02:00:12;14.00;86.50
68764;DHT22;55754;52.038;5.566;2022-10-16T02:02:40;14.00;85.60
68764;DHT22;55754;52.038;5.566;2022-10-16T02:05:20;14.00;85.60
68764;DHT22;55754;52.038;5.566;2022-10-16T02:07:48;14.00;85.70
68764;DHT22;55754;52.038;5.566;2022-10-16T02:10:13;14.00;85.70
68764;DHT22;55754;52.038;5.566;2022-10-16T02:12:44;13.90;85.70
68764;DHT22;55754;52.038;5.566;2022-10-16T02:15:11;14.00;85.90
68764;DHT22;55754;52.038;5.566;2022-10-16T02:17:36;14.00;86.00
68764;DHT22;55754;52.038;5.566;2022-10-16T02:20:03;14.00;86.00
68764;DHT22;55754;52.038;5.566;2022-10-16T02:22:35;14.00;86.00
68764;DHT22;55754;52.038;5.566;2022-10-16T02:25:17;14.00;86.10
68764;DHT22;55754;52.038;5.566;2022-10-16T02:27:54;14.00;86.20
68764;DHT22;55754;52.038;5.566;2022-10-16T02:30:25;14.00;86.20
68764;DHT22;55754;52.038;5.566;2022-10-16T02:32:53;14.00;86.20
68764;DHT22;55754;52.038;5.566;2022-10-16T02:35:21;14.00;86.20
68764;DHT22;55754;52.038;5.566;2022-10-16T02:37:48;14.00;86.20
68764;DHT22;55754;52.038;5.566;2022-10-16T02:40:16;14.00;86.30
68764;DHT22;55754;52.038;5.566;2022-10-16T02:42:42;14.00;86.40
68764;DHT22;55754;52.038;5.566;2022-10-16T02:45:09;14.00;86.50
68764;DHT22;55754;52.038;5.566;2022-10-16T02:47:38;13.90;86.40
68764;DHT22;55754;52.038;5.566;2022-10-16T02:50:04;15.00;87.10
68764;DHT22;55754;52.038;5.566;2022-10-16T02:52:29;13.90;86.60
68764;DHT22;55754;52.038;5.566;2022-10-16T02:54:55;13.90;86.70
68764;DHT22;55754;52.038;5.566;2022-10-16T02:57:20;13.90;86.80
68764;DHT22;55754;52.038;5.566;2022-10-16T02:59:46;13.90;86.70
68764;DHT22;55754;52.038;5.566;2022-10-16T03:02:11;13.90;86.80
68764;DHT22;55754;52.038;5.566;2022-10-16T03:04:37;13.90;86.70
68764;DHT22;55754;52.038;5.566;2022-10-16T03:07:06;13.90;86.80
68764;DHT22;55754;52.038;5.566;2022-10-16T03:09:31;13.90;86.80
68764;DHT22;55754;52.038;5.566;2022-10-16T03:11:57;13.90;86.80
68764;DHT22;55754;52.038;5.566;2022-10-16T03:14:22;13.80;86.90
68764;DHT22;55754;52.038;5.566;2022-10-16T03:16:51;13.80;87.00
68764;DHT22;55754;52.038;5.566;2022-10-16T03:19:17;14.70;87.60
68764;DHT22;55754;52.038;5.566;2022-10-16T03:21:43;13.80;87.10
68764;DHT22;55754;52.038;5.566;2022-10-16T03:24:09;13.80;87.10
68764;DHT22;55754;52.038;5.566;2022-10-16T03:26:35;13.80;87.10
68764;DHT22;55754;52.038;5.566;2022-10-16T03:29:01;13.80;87.30
68764;DHT22;55754;52.038;5.566;2022-10-16T03:31:28;13.80;87.30
68764;DHT22;55754;52.038;5.566;2022-10-16T03:33:54;13.80;87.30
68764;DHT22;55754;52.038;5.566;2022-10-16T03:36:19;13.80;87.30
68764;DHT22;55754;52.038;5.566;2022-10-16T03:38:45;13.80;87.50
68764;DHT22;55754;52.038;5.566;2022-10-16T03:41:11;13.80;87.40
68764;DHT22;55754;52.038;5.566;2022-10-16T03:43:36;13.80;87.40
68764;DHT22;55754;52.038;5.566;2022-10-16T03:46:02;13.80;87.40
68764;DHT22;55754;52.038;5.566;2022-10-16T03:48:27;14.40;87.80
68764;DHT22;55754;52.038;5.566;2022-10-16T03:50:53;13.80;87.50
68764;DHT22;55754;52.038;5.566;2022-10-16T03:53:18;13.80;87.50
68764;DHT22;55754;52.038;5.566;2022-10-16T03:55:44;13.70;87.60
68764;DHT22;55754;52.038;5.566;2022-10-16T03:58:10;13.80;87.50
68764;DHT22;55754;52.038;5.566;2022-10-16T04:00:43;14.50;88.00
68764;DHT22;55754;52.038;5.566;2022-10-16T04:03:09;13.70;87.50
68764;DHT22;55754;52.038;5.566;2022-10-16T04:05:34;13.80;87.50
68764;DHT22;55754;52.038;5.566;2022-10-16T04:08:00;13.00;87.10
68764;DHT22;55754;52.038;5.566;2022-10-16T04:10:26;13.70;87.50
68764;DHT22;55754;52.038;5.566;2022-10-16T04:12:52;13.60;87.40
68764;DHT22;55754;52.038;5.566;2022-10-16T04:15:19;14.10;87.70
68764;DHT22;55754;52.038;5.566;2022-10-16T04:17:45;13.70;87.50
68764;DHT22;55754;52.038;5.566;2022-10-16T04:20:11;13.70;87.40
68764;DHT22;55754;52.038;5.566;2022-10-16T04:22:36;13.70;87.50
68764;DHT22;55754;52.038;5.566;2022-10-16T04:25:02;13.70;87.50
68764;DHT22;55754;52.038;5.566;2022-10-16T04:27:27;13.60;87.50
68764;DHT22;55754;52.038;5.566;2022-10-16T04:29:53;13.60;87.50
68764;DHT22;55754;52.038;5.566;2022-10-16T04:32:19;13.60;87.50
68764;DHT22;55754;52.038;5.566;2022-10-16T04:34:44;13.60;87.40
68764;DHT22;55754;52.038;5.566;2022-10-16T04:37:10;13.60;87.50
68764;DHT22;55754;52.038;5.566;2022-10-16T04:39:35;14.50;88.00
68764;DHT22;55754;52.038;5.566;2022-10-16T04:42:01;13.50;87.50
68764;DHT22;55754;52.038;5.566;2022-10-16T04:44:27;14.50;88.10
68764;DHT22;55754;52.038;5.566;2022-10-16T04:46:55;13.60;87.70
68764;DHT22;55754;52.038;5.566;2022-10-16T04:49:21;13.60;87.70
68764;DHT22;55754;52.038;5.566;2022-10-16T04:51:46;13.50;87.70
68764;DHT22;55754;52.038;5.566;2022-10-16T04:54:12;13.50;87.80
68764;DHT22;55754;52.038;5.566;2022-10-16T04:56:38;13.50;87.90
68764;DHT22;55754;52.038;5.566;2022-10-16T04:59:13;13.50;88.00
68764;DHT22;55754;52.038;5.566;2022-10-16T05:01:39;13.50;88.00
68764;DHT22;55754;52.038;5.566;2022-10-16T05:04:04;13.40;88.00
68764;DHT22;55754;52.038;5.566;2022-10-16T05:06:30;13.50;88.20
68764;DHT22;55754;52.038;5.566;2022-10-16T05:08:55;14.20;88.60
68764;DHT22;55754;52.038;5.566;2022-10-16T05:11:22;13.40;88.20
68764;DHT22;55754;52.038;5.566;2022-10-16T05:13:48;13.40;88.20
68764;DHT22;55754;52.038;5.566;2022-10-16T05:16:13;13.40;88.20
68764;DHT22;55754;52.038;5.566;2022-10-16T05:18:39;13.40;88.30
68764;DHT22;55754;52.038;5.566;2022-10-16T05:21:04;12.80;87.90
68764;DHT22;55754;52.038;5.566;2022-10-16T05:23:31;13.80;88.50
68764;DHT22;55754;52.038;5.566;2022-10-16T05:25:57;14.30;88.90
68764;DHT22;55754;52.038;5.566;2022-10-16T05:28:28;13.40;88.40
68764;DHT22;55754;52.038;5.566;2022-10-16T05:30:54;13.30;88.50
68764;DHT22;55754;52.038;5.566;2022-10-16T05:33:20;13.30;88.60
68764;DHT22;55754;52.038;5.566;2022-10-16T05:35:47;13.30;88.70
68764;DHT22;55754;52.038;5.566;2022-10-16T05:38:12;13.30;88.70
68764;DHT22;55754;52.038;5.566;2022-10-16T05:40:38;13.30;88.70
68764;DHT22;55754;52.038;5.566;2022-10-16T05:43:03;13.30;88.70
68764;DHT22;55754;52.038;5.566;2022-10-16T05:45:29;13.40;88.80
68764;DHT22;55754;52.038;5.566;2022-10-16T05:47:57;13.30;88.70
68764;DHT22;55754;52.038;5.566;2022-10-16T05:50:23;13.40;88.90
68764;DHT22;55754;52.038;5.566;2022-10-16T05:52:49;13.30;88.90
68764;DHT22;55754;52.038;5.566;2022-10-16T05:55:17;13.50;89.00
68764;DHT22;55754;52.038;5.566;2022-10-16T05:57:43;13.30;88.90
68764;DHT22;55754;52.038;5.566;2022-10-16T06:00:09;13.30;88.90
68764;DHT22;55754;52.038;5.566;2022-10-16T06:02:35;13.40;88.90
68764;DHT22;55754;52.038;5.566;2022-10-16T06:05:00;13.30;88.90
68764;DHT22;55754;52.038;5.566;2022-10-16T06:07:26;13.30;88.90
68764;DHT22;55754;52.038;5.566;2022-10-16T06:09:52;13.40;89.00
68764;DHT22;55754;52.038;5.566;2022-10-16T06:12:18;13.60;89.20
68764;DHT22;55754;52.038;5.566;2022-10-16T06:14:45;13.40;89.20
68764;DHT22;55754;52.038;5.566;2022-10-16T06:17:14;13.40;89.20
68764;DHT22;55754;52.038;5.566;2022-10-16T06:19:40;13.40;89.10
68764;DHT22;55754;52.038;5.566;2022-10-16T06:22:05;13.40;89.20
68764;DHT22;55754;52.038;5.566;2022-10-16T06:24:31;13.40;89.20
68764;DHT22;55754;52.038;5.566;2022-10-16T06:26:57;13.40;89.10
68764;DHT22;55754;52.038;5.566;2022-10-16T06:29:22;13.40;89.20
68764;DHT22;55754;52.038;5.566;2022-10-16T06:31:48;13.50;89.20
68764;DHT22;55754;52.038;5.566;2022-10-16T06:34:13;13.50;89.30
68764;DHT22;55754;52.038;5.566;2022-10-16T06:36:39;13.50;89.30
68764;DHT22;55754;52.038;5.566;2022-10-16T06:39:05;13.60;89.20
68764;DHT22;55754;52.038;5.566;2022-10-16T06:41:32;13.50;89.10
68764;DHT22;55754;52.038;5.566;2022-10-16T06:43:58;13.60;89.10
68764;DHT22;55754;52.038;5.566;2022-10-16T06:46:25;13.60;89.10
68764;DHT22;55754;52.038;5.566;2022-10-16T06:48:51;13.60;89.00
68764;DHT22;55754;52.038;5.566;2022-10-16T06:51:22;13.60;89.00
68764;DHT22;55754;52.038;5.566;2022-10-16T06:53:50;13.60;89.00
68764;DHT22;55754;52.038;5.566;2022-10-16T06:56:19;13.70;89.00
68764;DHT22;55754;52.038;5.566;2022-10-16T06:58:45;13.70;89.10
68764;DHT22;55754;52.038;5.566;2022-10-16T07:01:12;13.70;89.00
68764;DHT22;55754;52.038;5.566;2022-10-16T07:03:41;13.70;89.00
68764;DHT22;55754;52.038;5.566;2022-10-16T07:06:09;13.80;89.00
68764;DHT22;55754;52.038;5.566;2022-10-16T07:08:36;13.80;88.90
68764;DHT22;55754;52.038;5.566;2022-10-16T07:11:08;13.80;88.90
68764;DHT22;55754;52.038;5.566;2022-10-16T07:13:34;13.80;89.00
68764;DHT22;55754;52.038;5.566;2022-10-16T07:16:07;13.80;88.90
68764;DHT22;55754;52.038;5.566;2022-10-16T07:18:33;13.90;89.00
68764;DHT22;55754;52.038;5.566;2022-10-16T07:21:12;13.90;88.90
68764;DHT22;55754;52.038;5.566;2022-10-16T07:23:38;13.90;89.00
68764;DHT22;55754;52.038;5.566;2022-10-16T07:26:04;13.90;88.80
68764;DHT22;55754;52.038;5.566;2022-10-16T07:28:30;13.90;88.70
68764;DHT22;55754;52.038;5.566;2022-10-16T07:31:00;14.00;88.70
68764;DHT22;55754;52.038;5.566;2022-10-16T07:33:26;14.00;88.60
68764;DHT22;55754;52.038;5.566;2022-10-16T07:35:52;14.00;88.60
68764;DHT22;55754;52.038;5.566;2022-10-16T07:38:19;14.10;88.60
68764;DHT22;55754;52.038;5.566;2022-10-16T07:40:45;14.10;88.30
68764;DHT22;55754;52.038;5.566;2022-10-16T07:43:10;14.20;88.40
68764;DHT22;55754;52.038;5.566;2022-10-16T07:45:36;14.20;88.10
68764;DHT22;55754;52.038;5.566;2022-10-16T07:48:02;14.20;88.00
68764;DHT22;55754;52.038;5.566;2022-10-16T07:50:27;14.20;87.90
68764;DHT22;55754;52.038;5.566;2022-10-16T07:52:53;14.30;88.00
68764;DHT22;55754;52.038;5.566;2022-10-16T07:55:18;14.30;87.80
68764;DHT22;55754;52.038;5.566;2022-10-16T07:57:44;14.40;88.10
68764;DHT22;55754;52.038;5.566;2022-10-16T08:00:10;14.40;87.90
68764;DHT22;55754;52.038;5.566;2022-10-16T08:02:42;14.30;88.70
68764;DHT22;55754;52.038;5.566;2022-10-16T08:05:07;14.30;87.60
68764;DHT22;55754;52.038;5.566;2022-10-16T08:07:33;14.30;87.60
68764;DHT22;55754;52.038;5.566;2022-10-16T08:09:59;14.30;87.70
68764;DHT22;55754;52.038;5.566;2022-10-16T08:12:25;14.30;87.80
68764;DHT22;55754;52.038;5.566;2022-10-16T08:14:51;14.40;87.60
68764;DHT22;55754;52.038;5.566;2022-10-16T08:17:17;14.40;87.60
68764;DHT22;55754;52.038;5.566;2022-10-16T08:19:48;14.50;87.50
68764;DHT22;55754;52.038;5.566;2022-10-16T08:22:14;14.60;87.20
68764;DHT22;55754;52.038;5.566;2022-10-16T08:24:40;14.70;86.90
68764;DHT22;55754;52.038;5.566;2022-10-16T08:27:06;14.80;87.00
68764;DHT22;55754;52.038;5.566;2022-10-16T08:29:32;14.90;86.70
68764;DHT22;55754;52.038;5.566;2022-10-16T08:31:58;15.00;86.30
68764;DHT22;55754;52.038;5.566;2022-10-16T08:34:24;15.10;85.90
68764;DHT22;55754;52.038;5.566;2022-10-16T08:36:49;15.20;86.00
68764;DHT22;55754;52.038;5.566;2022-10-16T08:39:15;15.30;85.30
68764;DHT22;55754;52.038;5.566;2022-10-16T08:42:03;15.40;85.00
68764;DHT22;55754;52.038;5.566;2022-10-16T08:44:53;15.50;83.90
68764;DHT22;55754;52.038;5.566;2022-10-16T08:47:39;15.50;84.10
68764;DHT22;55754;52.038;5.566;2022-10-16T08:50:12;15.60;83.50
68764;DHT22;55754;52.038;5.566;2022-10-16T08:52:41;15.60;83.50
68764;DHT22;55754;52.038;5.566;2022-10-16T08:58:01;15.80;83.30
68764;DHT22;55754;52.038;5.566;2022-10-16T09:00:27;15.80;83.00
68764;DHT22;55754;52.038;5.566;2022-10-16T09:03:04;15.90;82.70
68764;DHT22;55754;52.038;5.566;2022-10-16T09:05:52;15.90;82.40
68764;DHT22;55754;52.038;5.566;2022-10-16T09:08:37;15.90;81.90
68764;DHT22;55754;52.038;5.566;2022-10-16T09:11:18;16.00;82.30
68764;DHT22;55754;52.038;5.566;2022-10-16T09:14:06;16.00;82.20
68764;DHT22;55754;52.038;5.566;2022-10-16T09:16:38;16.00;81.90
68764;DHT22;55754;52.038;5.566;2022-10-16T09:19:16;16.00;81.50
68764;DHT22;55754;52.038;5.566;2022-10-16T09:21:45;16.10;81.30
68764;DHT22;55754;52.038;5.566;2022-10-16T09:24:25;16.10;81.60
68764;DHT22;55754;52.038;5.566;2022-10-16T09:26:51;16.10;81.30
68764;DHT22;55754;52.038;5.566;2022-10-16T09:29:19;16.20;81.30
68764;DHT22;55754;52.038;5.566;2022-10-16T09:31:50;16.20;80.80
68764;DHT22;55754;52.038;5.566;2022-10-16T09:34:31;16.20;81.00
68764;DHT22;55754;52.038;5.566;2022-10-16T09:36:59;16.20;80.70
68764;DHT22;55754;52.038;5.566;2022-10-16T09:39:26;16.30;81.10
68764;DHT22;55754;52.038;5.566;2022-10-16T09:41:51;16.30;81.10
68764;DHT22;55754;52.038;5.566;2022-10-16T09:44:24;16.20;80.70
68764;DHT22;55754;52.038;5.566;2022-10-16T09:47:04;16.30;80.70
68764;DHT22;55754;52.038;5.566;2022-10-16T09:49:30;16.30;80.50
68764;DHT22;55754;52.038;5.566;2022-10-16T09:52:12;16.40;81.00
68764;DHT22;55754;52.038;5.566;2022-10-16T09:54:58;16.40;80.50
68764;DHT22;55754;52.038;5.566;2022-10-16T09:57:25;16.40;80.50
68764;DHT22;55754;52.038;5.566;2022-10-16T10:02:19;16.40;80.20
68764;DHT22;55754;52.038;5.566;2022-10-16T10:04:55;16.40;80.00
68764;DHT22;55754;52.038;5.566;2022-10-16T10:07:38;16.40;79.30
68764;DHT22;55754;52.038;5.566;2022-10-16T10:10:05;16.50;79.60
68764;DHT22;55754;52.038;5.566;2022-10-16T10:12:32;16.50;79.30
68764;DHT22;55754;52.038;5.566;2022-10-16T10:15:13;16.50;79.30
68764;DHT22;55754;52.038;5.566;2022-10-16T10:17:46;16.50;79.20
68764;DHT22;55754;52.038;5.566;2022-10-16T10:20:27;16.60;79.30
68764;DHT22;55754;52.038;5.566;2022-10-16T10:22:54;16.70;78.50
68764;DHT22;55754;52.038;5.566;2022-10-16T10:25:42;16.70;78.80
68764;DHT22;55754;52.038;5.566;2022-10-16T10:31:26;16.80;78.10
68764;DHT22;55754;52.038;5.566;2022-10-16T10:36:40;17.00;78.30
68764;DHT22;55754;52.038;5.566;2022-10-16T10:39:19;17.10;77.60
68764;DHT22;55754;52.038;5.566;2022-10-16T10:42:09;17.10;77.10
68764;DHT22;55754;52.038;5.566;2022-10-16T10:56:39;17.20;74.30
68764;DHT22;55754;52.038;5.566;2022-10-16T11:02:01;17.40;75.30
68764;DHT22;55754;52.038;5.566;2022-10-16T11:07:21;17.60;74.20
68764;DHT22;55754;52.038;5.566;2022-10-16T11:09:58;17.70;73.60
68764;DHT22;55754;52.038;5.566;2022-10-16T11:12:34;17.80;72.80
68764;DHT22;55754;52.038;5.566;2022-10-16T11:17:55;18.00;72.00
68764;DHT22;55754;52.038;5.566;2022-10-16T11:20:32;18.00;72.30
68764;DHT22;55754;52.038;5.566;2022-10-16T11:23:18;18.10;71.50
68764;DHT22;55754;52.038;5.566;2022-10-16T11:25:46;18.20;69.80
68764;DHT22;55754;52.038;5.566;2022-10-16T11:28:16;18.20;69.60
68764;DHT22;55754;52.038;5.566;2022-10-16T11:30:57;18.20;69.90
68764;DHT22;55754;52.038;5.566;2022-10-16T11:33:39;18.20;69.50
68764;DHT22;55754;52.038;5.566;2022-10-16T11:36:21;18.20;69.30
68764;DHT22;55754;52.038;5.566;2022-10-16T11:41:36;18.30;69.20
68764;DHT22;55754;52.038;5.566;2022-10-16T11:49:36;18.30;68.80
68764;DHT22;55754;52.038;5.566;2022-10-16T11:52:23;18.30;68.70
68764;DHT22;55754;52.038;5.566;2022-10-16T11:54:59;18.10;68.40
68764;DHT22;55754;52.038;5.566;2022-10-16T11:57:32;18.00;68.60
68764;DHT22;55754;52.038;5.566;2022-10-16T12:00:04;18.00;69.00
68764;DHT22;55754;52.038;5.566;2022-10-16T12:05:46;18.20;68.30
68764;DHT22;55754;52.038;5.566;2022-10-16T12:08:16;18.30;68.30
68764;DHT22;55754;52.038;5.566;2022-10-16T12:10:44;18.40;68.90
68764;DHT22;55754;52.038;5.566;2022-10-16T12:13:39;18.40;67.40
68764;DHT22;55754;52.038;5.566;2022-10-16T12:18:40;18.50;65.60
68764;DHT22;55754;52.038;5.566;2022-10-16T12:21:07;18.50;66.60
68764;DHT22;55754;52.038;5.566;2022-10-16T12:23:46;18.50;67.20
68764;DHT22;55754;52.038;5.566;2022-10-16T12:26:12;18.50;66.70
68764;DHT22;55754;52.038;5.566;2022-10-16T12:28:37;18.40;67.10
68764;DHT22;55754;52.038;5.566;2022-10-16T12:31:09;18.40;67.10
68764;DHT22;55754;52.038;5.566;2022-10-16T12:33:40;18.40;66.90
68764;DHT22;55754;52.038;5.566;2022-10-16T12:36:29;18.40;67.50
68764;DHT22;55754;52.038;5.566;2022-10-16T12:38:55;18.50;67.30
68764;DHT22;55754;52.038;5.566;2022-10-16T12:41:31;18.50;67.30
68764;DHT22;55754;52.038;5.566;2022-10-16T12:43:58;18.50;66.70
68764;DHT22;55754;52.038;5.566;2022-10-16T12:49:36;18.60;66.80
68764;DHT22;55754;52.038;5.566;2022-10-16T12:52:03;18.70;65.30
68764;DHT22;55754;52.038;5.566;2022-10-16T12:54:36;18.60;66.20
68764;DHT22;55754;52.038;5.566;2022-10-16T13:04:56;18.70;65.70
68764;DHT22;55754;52.038;5.566;2022-10-16T13:10:27;18.60;65.10
68764;DHT22;55754;52.038;5.566;2022-10-16T13:21:25;18.70;64.60
68764;DHT22;55754;52.038;5.566;2022-10-16T13:25:06;18.70;65.70
68764;DHT22;55754;52.038;5.566;2022-10-16T13:29:41;18.60;64.30
68764;DHT22;55754;52.038;5.566;2022-10-16T13:32:10;18.60;64.20
68764;DHT22;55754;52.038;5.566;2022-10-16T13:34:48;18.60;64.20
68764;DHT22;55754;52.038;5.566;2022-10-16T13:37:25;18.50;63.00
68764;DHT22;55754;52.038;5.566;2022-10-16T13:39:50;18.50;62.90
68764;DHT22;55754;52.038;5.566;2022-10-16T13:42:26;18.50;64.10
68764;DHT22;55754;52.038;5.566;2022-10-16T13:44:54;18.50;63.50
68764;DHT22;55754;52.038;5.566;2022-10-16T13:47:25;18.50;63.70
68764;DHT22;55754;52.038;5.566;2022-10-16T13:50:05;18.50;63.70
68764;DHT22;55754;52.038;5.566;2022-10-16T13:52:32;18.50;63.70
68764;DHT22;55754;52.038;5.566;2022-10-16T13:54:57;18.50;64.40
68764;DHT22;55754;52.038;5.566;2022-10-16T13:57:24;18.50;63.90
68764;DHT22;55754;52.038;5.566;2022-10-16T13:59:50;18.50;64.00
68764;DHT22;55754;52.038;5.566;2022-10-16T14:04:52;18.50;64.20
68764;DHT22;55754;52.038;5.566;2022-10-16T14:07:27;18.50;64.80
68764;DHT22;55754;52.038;5.566;2022-10-16T14:09:54;18.50;64.20
68764;DHT22;55754;52.038;5.566;2022-10-16T14:12:20;18.50;64.50
68764;DHT22;55754;52.038;5.566;2022-10-16T14:14:51;18.50;64.30
68764;DHT22;55754;52.038;5.566;2022-10-16T14:17:27;18.50;64.40
68764;DHT22;55754;52.038;5.566;2022-10-16T14:19:56;18.50;64.20
68764;DHT22;55754;52.038;5.566;2022-10-16T14:22:37;18.50;64.80
68764;DHT22;55754;52.038;5.566;2022-10-16T14:25:25;18.40;64.50
68764;DHT22;55754;52.038;5.566;2022-10-16T14:30:56;18.40;64.80
68764;DHT22;55754;52.038;5.566;2022-10-16T14:38:31;18.50;64.70
68764;DHT22;55754;52.038;5.566;2022-10-16T14:40:58;18.50;65.70
68764;DHT22;55754;52.038;5.566;2022-10-16T14:43:35;18.50;65.70
68764;DHT22;55754;52.038;5.566;2022-10-16T14:46:11;18.40;65.60
68764;DHT22;55754;52.038;5.566;2022-10-16T14:48:41;18.40;65.30
68764;DHT22;55754;52.038;5.566;2022-10-16T14:51:13;18.40;65.70
68764;DHT22;55754;52.038;5.566;2022-10-16T14:53:41;18.40;65.50
68764;DHT22;55754;52.038;5.566;2022-10-16T14:56:18;18.40;66.00
68764;DHT22;55754;52.038;5.566;2022-10-16T14:58:44;18.40;65.80
68764;DHT22;55754;52.038;5.566;2022-10-16T15:01:10;18.40;66.50
68764;DHT22;55754;52.038;5.566;2022-10-16T15:03:37;18.30;67.00
68764;DHT22;55754;52.038;5.566;2022-10-16T15:06:03;18.30;66.80
68764;DHT22;55754;52.038;5.566;2022-10-16T15:08:29;18.30;66.80
68764;DHT22;55754;52.038;5.566;2022-10-16T15:10:54;18.30;66.80
68764;DHT22;55754;52.038;5.566;2022-10-16T15:13:20;18.40;66.50
68764;DHT22;55754;52.038;5.566;2022-10-16T15:15:47;18.30;66.30
68764;DHT22;55754;52.038;5.566;2022-10-16T15:18:14;18.40;66.40
68764;DHT22;55754;52.038;5.566;2022-10-16T15:20:47;18.30;66.90
68764;DHT22;55754;52.038;5.566;2022-10-16T15:23:20;18.30;67.10
68764;DHT22;55754;52.038;5.566;2022-10-16T15:25:47;18.30;67.30
68764;DHT22;55754;52.038;5.566;2022-10-16T15:28:14;18.30;67.80
68764;DHT22;55754;52.038;5.566;2022-10-16T15:30:40;18.30;67.10
68764;DHT22;55754;52.038;5.566;2022-10-16T15:33:13;18.30;67.10
68764;DHT22;55754;52.038;5.566;2022-10-16T15:35:40;18.20;66.50
68764;DHT22;55754;52.038;5.566;2022-10-16T15:38:05;18.20;66.60
68764;DHT22;55754;52.038;5.566;2022-10-16T15:40:31;18.20;66.50
68764;DHT22;55754;52.038;5.566;2022-10-16T15:42:56;18.20;66.60
68764;DHT22;55754;52.038;5.566;2022-10-16T15:45:22;18.10;67.10
68764;DHT22;55754;52.038;5.566;2022-10-16T15:47:47;18.10;67.40
68764;DHT22;55754;52.038;5.566;2022-10-16T15:50:14;18.00;67.30
68764;DHT22;55754;52.038;5.566;2022-10-16T15:52:41;18.00;67.80
68764;DHT22;55754;52.038;5.566;2022-10-16T15:55:12;17.90;68.60
68764;DHT22;55754;52.038;5.566;2022-10-16T15:57:37;17.90;69.00
68764;DHT22;55754;52.038;5.566;2022-10-16T16:00:06;17.80;69.00
68764;DHT22;55754;52.038;5.566;2022-10-16T16:02:33;17.80;70.30
68764;DHT22;55754;52.038;5.566;2022-10-16T16:04:58;17.70;69.50
68764;DHT22;55754;52.038;5.566;2022-10-16T16:07:24;17.70;70.10
68764;DHT22;55754;52.038;5.566;2022-10-16T16:09:49;17.70;70.90
68764;DHT22;55754;52.038;5.566;2022-10-16T16:12:15;17.60;72.30
68764;DHT22;55754;52.038;5.566;2022-10-16T16:14:40;17.60;71.40
68764;DHT22;55754;52.038;5.566;2022-10-16T16:17:06;17.60;71.70
68764;DHT22;55754;52.038;5.566;2022-10-16T16:19:32;17.60;71.80
68764;DHT22;55754;52.038;5.566;2022-10-16T16:21:58;17.60;72.30
68764;DHT22;55754;52.038;5.566;2022-10-16T16:24:24;17.50;72.80
68764;DHT22;55754;52.038;5.566;2022-10-16T16:26:49;17.50;73.10
68764;DHT22;55754;52.038;5.566;2022-10-16T16:29:15;17.40;72.90
68764;DHT22;55754;52.038;5.566;2022-10-16T16:31:42;17.40;72.80
68764;DHT22;55754;52.038;5.566;2022-10-16T16:34:08;17.40;72.80
68764;DHT22;55754;52.038;5.566;2022-10-16T16:36:34;17.40;72.80
68764;DHT22;55754;52.038;5.566;2022-10-16T16:39:00;17.40;72.80
68764;DHT22;55754;52.038;5.566;2022-10-16T16:41:28;17.30;73.30
68764;DHT22;55754;52.038;5.566;2022-10-16T16:43:54;17.30;73.10
68764;DHT22;55754;52.038;5.566;2022-10-16T16:46:20;17.30;72.70
68764;DHT22;55754;52.038;5.566;2022-10-16T16:48:49;17.30;72.70
68764;DHT22;55754;52.038;5.566;2022-10-16T16:51:23;17.30;72.80
68764;DHT22;55754;52.038;5.566;2022-10-16T16:53:52;17.60;73.30
68764;DHT22;55754;52.038;5.566;2022-10-16T16:56:19;17.20;72.90
68764;DHT22;55754;52.038;5.566;2022-10-16T16:58:46;17.20;72.90
68764;DHT22;55754;52.038;5.566;2022-10-16T17:01:12;17.10;73.00
68764;DHT22;55754;52.038;5.566;2022-10-16T17:03:37;17.10;73.30
68764;DHT22;55754;52.038;5.566;2022-10-16T17:06:06;17.10;73.50
68764;DHT22;55754;52.038;5.566;2022-10-16T17:08:33;17.10;74.30
68764;DHT22;55754;52.038;5.566;2022-10-16T17:10:58;17.00;74.20
68764;DHT22;55754;52.038;5.566;2022-10-16T17:13:29;16.90;74.30
68764;DHT22;55754;52.038;5.566;2022-10-16T17:15:55;16.90;74.20